sensor_id;sensor_type;location;lat;lon;timestamp;P1;durP1;ratioP1;P2;durP2;ratioP2
11921;SDS011;6021;51.182;3.160;2023-01-10T00:01:51;10.53;;;3.13;;
11921;SDS011;6021;51.182;3.160;2023-01-10T00:04:22;11.43;;;2.27;;
11921;SDS011;6021;51.182;3.160;2023-01-10T00:06:52;10.10;;;2.50;;
11921;SDS011;6021;51.182;3.160;2023-01-10T00:09:21;9.37;;;2.60;;
11921;SDS011;6021;51.182;3.160;2023-01-10T00:11:49;8.07;;;2.30;;
11921;SDS011;6021;51.182;3.160;2023-01-10T00:14:35;8.37;;;2.53;;
11921;SDS011;6021;51.182;3.160;2023-01-10T00:17:04;11.97;;;3.40;;
11921;SDS011;6021;51.182;3.160;2023-01-10T00:19:32;8.63;;;3.20;;
11921;SDS011;6021;51.182;3.160;2023-01-10T00:22:01;10.07;;;2.97;;
11921;SDS011;6021;51.182;3.160;2023-01-10T00:24:31;11.57;;;3.23;;
11921;SDS011;6021;51.182;3.160;2023-01-10T00:26:59;14.07;;;3.73;;
11921;SDS011;6021;51.182;3.160;2023-01-10T00:29:28;12.30;;;3.27;;
11921;SDS011;6021;51.182;3.160;2023-01-10T00:31:57;12.83;;;3.60;;
11921;SDS011;6021;51.182;3.160;2023-01-10T00:34:26;11.87;;;3.20;;
11921;SDS011;6021;51.182;3.160;2023-01-10T00:36:54;11.83;;;3.17;;
11921;SDS011;6021;51.182;3.160;2023-01-10T00:39:24;12.47;;;2.87;;
11921;SDS011;6021;51.182;3.160;2023-01-10T00:41:53;10.67;;;3.23;;
11921;SDS011;6021;51.182;3.160;2023-01-10T00:44:38;12.43;;;3.00;;
11921;SDS011;6021;51.182;3.160;2023-01-10T00:47:07;12.20;;;3.17;;
11921;SDS011;6021;51.182;3.160;2023-01-10T00:49:35;12.63;;;3.80;;
11921;SDS011;6021;51.182;3.160;2023-01-10T00:52:04;12.23;;;3.10;;
11921;SDS011;6021;51.182;3.160;2023-01-10T00:54:32;12.77;;;3.70;;
11921;SDS011;6021;51.182;3.160;2023-01-10T00:57:01;13.97;;;3.63;;
11921;SDS011;6021;51.182;3.160;2023-01-10T00:59:29;13.50;;;3.40;;
11921;SDS011;6021;51.182;3.160;2023-01-10T01:01:58;14.90;;;3.93;;
11921;SDS011;6021;51.182;3.160;2023-01-10T01:04:26;14.90;;;3.87;;
11921;SDS011;6021;51.182;3.160;2023-01-10T01:06:56;11.60;;;3.27;;
11921;SDS011;6021;51.182;3.160;2023-01-10T01:09:25;12.23;;;3.70;;
11921;SDS011;6021;51.182;3.160;2023-01-10T01:11:54;10.40;;;3.33;;
11921;SDS011;6021;51.182;3.160;2023-01-10T01:14:22;13.90;;;3.83;;
11921;SDS011;6021;51.182;3.160;2023-01-10T01:16:52;17.70;;;4.50;;
11921;SDS011;6021;51.182;3.160;2023-01-10T01:19:20;13.93;;;4.37;;
11921;SDS011;6021;51.182;3.160;2023-01-10T01:21:49;17.13;;;4.77;;
11921;SDS011;6021;51.182;3.160;2023-01-10T01:24:17;16.33;;;4.97;;
11921;SDS011;6021;51.182;3.160;2023-01-10T01:26:46;13.33;;;3.73;;
11921;SDS011;6021;51.182;3.160;2023-01-10T01:29:15;15.63;;;4.17;;
11921;SDS011;6021;51.182;3.160;2023-01-10T01:31:43;15.33;;;4.23;;
11921;SDS011;6021;51.182;3.160;2023-01-10T01:34:12;12.10;;;4.30;;
11921;SDS011;6021;51.182;3.160;2023-01-10T01:36:41;14.77;;;4.40;;
11921;SDS011;6021;51.182;3.160;2023-01-10T01:39:09;12.90;;;3.90;;
11921;SDS011;6021;51.182;3.160;2023-01-10T01:41:38;11.73;;;3.20;;
11921;SDS011;6021;51.182;3.160;2023-01-10T01:44:29;13.30;;;3.50;;
11921;SDS011;6021;51.182;3.160;2023-01-10T01:47:01;14.63;;;5.07;;
11921;SDS011;6021;51.182;3.160;2023-01-10T01:49:31;15.83;;;5.50;;
11921;SDS011;6021;51.182;3.160;2023-01-10T01:52:04;14.40;;;4.23;;
11921;SDS011;6021;51.182;3.160;2023-01-10T01:54:39;18.77;;;5.50;;
11921;SDS011;6021;51.182;3.160;2023-01-10T01:57:11;18.77;;;4.97;;
11921;SDS011;6021;51.182;3.160;2023-01-10T01:59:44;13.23;;;4.37;;
11921;SDS011;6021;51.182;3.160;2023-01-10T02:02:16;19.23;;;4.27;;
11921;SDS011;6021;51.182;3.160;2023-01-10T02:04:56;20.93;;;4.17;;
11921;SDS011;6021;51.182;3.160;2023-01-10T02:07:32;14.73;;;3.63;;
11921;SDS011;6021;51.182;3.160;2023-01-10T02:10:10;10.80;;;3.60;;
11921;SDS011;6021;51.182;3.160;2023-01-10T02:12:43;14.17;;;3.73;;
11921;SDS011;6021;51.182;3.160;2023-01-10T02:15:14;15.30;;;3.90;;
11921;SDS011;6021;51.182;3.160;2023-01-10T02:17:49;15.47;;;4.03;;
11921;SDS011;6021;51.182;3.160;2023-01-10T02:20:15;16.47;;;4.70;;
11921;SDS011;6021;51.182;3.160;2023-01-10T02:31:33;17.57;;;5.13;;
11921;SDS011;6021;51.182;3.160;2023-01-10T02:34:15;14.57;;;4.33;;
11921;SDS011;6021;51.182;3.160;2023-01-10T02:40:03;15.60;;;4.20;;
11921;SDS011;6021;51.182;3.160;2023-01-10T02:42:41;20.20;;;4.63;;
11921;SDS011;6021;51.182;3.160;2023-01-10T02:45:27;18.57;;;4.37;;
11921;SDS011;6021;51.182;3.160;2023-01-10T02:47:53;15.70;;;4.30;;
11921;SDS011;6021;51.182;3.160;2023-01-10T02:52:59;18.13;;;4.40;;
11921;SDS011;6021;51.182;3.160;2023-01-10T02:55:34;18.87;;;4.87;;
11921;SDS011;6021;51.182;3.160;2023-01-10T02:58:19;19.63;;;3.53;;
11921;SDS011;6021;51.182;3.160;2023-01-10T03:06:46;15.00;;;3.60;;
11921;SDS011;6021;51.182;3.160;2023-01-10T03:09:20;18.13;;;4.23;;
11921;SDS011;6021;51.182;3.160;2023-01-10T03:11:56;15.90;;;3.93;;
11921;SDS011;6021;51.182;3.160;2023-01-10T03:14:25;18.67;;;4.50;;
11921;SDS011;6021;51.182;3.160;2023-01-10T03:16:57;19.37;;;4.57;;
11921;SDS011;6021;51.182;3.160;2023-01-10T03:19:34;18.50;;;4.20;;
11921;SDS011;6021;51.182;3.160;2023-01-10T03:22:03;14.93;;;3.80;;
11921;SDS011;6021;51.182;3.160;2023-01-10T03:24:35;18.27;;;4.00;;
11921;SDS011;6021;51.182;3.160;2023-01-10T03:30:42;16.80;;;3.90;;
11921;SDS011;6021;51.182;3.160;2023-01-10T03:32:21;18.80;;;3.40;;
11921;SDS011;6021;51.182;3.160;2023-01-10T03:34:51;16.60;;;3.70;;
11921;SDS011;6021;51.182;3.160;2023-01-10T03:45:51;15.40;;;3.60;;
11921;SDS011;6021;51.182;3.160;2023-01-10T03:48:16;13.23;;;3.73;;
11921;SDS011;6021;51.182;3.160;2023-01-10T03:50:47;11.97;;;3.47;;
11921;SDS011;6021;51.182;3.160;2023-01-10T03:53:17;16.17;;;3.70;;
11921;SDS011;6021;51.182;3.160;2023-01-10T03:55:46;13.23;;;3.83;;
11921;SDS011;6021;51.182;3.160;2023-01-10T03:58:15;16.37;;;4.27;;
11921;SDS011;6021;51.182;3.160;2023-01-10T04:00:45;16.23;;;4.10;;
11921;SDS011;6021;51.182;3.160;2023-01-10T04:03:14;23.57;;;4.53;;
11921;SDS011;6021;51.182;3.160;2023-01-10T04:05:42;20.23;;;4.50;;
11921;SDS011;6021;51.182;3.160;2023-01-10T04:08:11;20.67;;;4.20;;
11921;SDS011;6021;51.182;3.160;2023-01-10T04:10:39;19.73;;;4.23;;
11921;SDS011;6021;51.182;3.160;2023-01-10T04:13:08;17.77;;;4.00;;
11921;SDS011;6021;51.182;3.160;2023-01-10T04:15:36;14.23;;;3.77;;
11921;SDS011;6021;51.182;3.160;2023-01-10T04:18:05;18.20;;;4.33;;
11921;SDS011;6021;51.182;3.160;2023-01-10T04:20:33;16.30;;;4.50;;
11921;SDS011;6021;51.182;3.160;2023-01-10T04:23:01;15.13;;;4.00;;
11921;SDS011;6021;51.182;3.160;2023-01-10T04:25:30;15.13;;;3.93;;
11921;SDS011;6021;51.182;3.160;2023-01-10T04:27:58;17.87;;;4.07;;
11921;SDS011;6021;51.182;3.160;2023-01-10T04:32:57;19.37;;;4.63;;
11921;SDS011;6021;51.182;3.160;2023-01-10T04:35:25;16.13;;;3.77;;
11921;SDS011;6021;51.182;3.160;2023-01-10T04:37:54;13.60;;;3.77;;
11921;SDS011;6021;51.182;3.160;2023-01-10T04:40:22;14.03;;;4.10;;
11921;SDS011;6021;51.182;3.160;2023-01-10T04:42:51;16.63;;;3.83;;
11921;SDS011;6021;51.182;3.160;2023-01-10T04:45:19;11.23;;;3.50;;
11921;SDS011;6021;51.182;3.160;2023-01-10T04:47:49;13.43;;;3.70;;
11921;SDS011;6021;51.182;3.160;2023-01-10T04:50:18;15.30;;;4.10;;
11921;SDS011;6021;51.182;3.160;2023-01-10T04:52:46;18.00;;;4.23;;
11921;SDS011;6021;51.182;3.160;2023-01-10T04:55:15;15.57;;;4.23;;
11921;SDS011;6021;51.182;3.160;2023-01-10T04:57:43;12.93;;;2.90;;
11921;SDS011;6021;51.182;3.160;2023-01-10T05:00:12;16.07;;;4.47;;
11921;SDS011;6021;51.182;3.160;2023-01-10T05:02:40;13.03;;;3.27;;
11921;SDS011;6021;51.182;3.160;2023-01-10T05:05:10;17.30;;;3.80;;
11921;SDS011;6021;51.182;3.160;2023-01-10T05:07:40;18.00;;;4.00;;
11921;SDS011;6021;51.182;3.160;2023-01-10T05:10:10;14.50;;;3.80;;
11921;SDS011;6021;51.182;3.160;2023-01-10T05:12:38;14.73;;;4.10;;
11921;SDS011;6021;51.182;3.160;2023-01-10T05:15:07;22.87;;;4.17;;
11921;SDS011;6021;51.182;3.160;2023-01-10T05:17:35;18.83;;;4.20;;
11921;SDS011;6021;51.182;3.160;2023-01-10T05:20:04;14.27;;;4.07;;
11921;SDS011;6021;51.182;3.160;2023-01-10T05:22:33;18.60;;;4.50;;
11921;SDS011;6021;51.182;3.160;2023-01-10T05:25:02;17.70;;;4.40;;
11921;SDS011;6021;51.182;3.160;2023-01-10T05:27:30;15.50;;;3.80;;
11921;SDS011;6021;51.182;3.160;2023-01-10T05:29:59;15.67;;;3.73;;
11921;SDS011;6021;51.182;3.160;2023-01-10T05:32:28;19.07;;;3.67;;
11921;SDS011;6021;51.182;3.160;2023-01-10T05:34:56;18.63;;;3.30;;
11921;SDS011;6021;51.182;3.160;2023-01-10T05:37:25;14.60;;;3.73;;
11921;SDS011;6021;51.182;3.160;2023-01-10T05:39:53;14.00;;;3.87;;
11921;SDS011;6021;51.182;3.160;2023-01-10T05:42:21;17.40;;;3.57;;
11921;SDS011;6021;51.182;3.160;2023-01-10T05:44:50;17.70;;;3.60;;
11921;SDS011;6021;51.182;3.160;2023-01-10T05:47:19;12.77;;;3.70;;
11921;SDS011;6021;51.182;3.160;2023-01-10T05:49:47;17.90;;;4.27;;
11921;SDS011;6021;51.182;3.160;2023-01-10T05:52:16;13.73;;;3.80;;
11921;SDS011;6021;51.182;3.160;2023-01-10T05:54:44;18.17;;;3.50;;
11921;SDS011;6021;51.182;3.160;2023-01-10T05:57:13;17.03;;;3.90;;
11921;SDS011;6021;51.182;3.160;2023-01-10T05:59:41;16.90;;;3.77;;
11921;SDS011;6021;51.182;3.160;2023-01-10T06:02:10;19.10;;;3.97;;
11921;SDS011;6021;51.182;3.160;2023-01-10T06:04:38;16.40;;;4.10;;
11921;SDS011;6021;51.182;3.160;2023-01-10T06:07:07;15.97;;;3.60;;
11921;SDS011;6021;51.182;3.160;2023-01-10T06:09:35;18.47;;;3.50;;
11921;SDS011;6021;51.182;3.160;2023-01-10T06:12:04;13.70;;;3.20;;
11921;SDS011;6021;51.182;3.160;2023-01-10T06:14:32;16.07;;;3.83;;
11921;SDS011;6021;51.182;3.160;2023-01-10T06:17:00;18.80;;;3.90;;
11921;SDS011;6021;51.182;3.160;2023-01-10T06:19:30;17.27;;;3.27;;
11921;SDS011;6021;51.182;3.160;2023-01-10T06:21:59;16.60;;;3.80;;
11921;SDS011;6021;51.182;3.160;2023-01-10T06:24:27;14.50;;;3.47;;
11921;SDS011;6021;51.182;3.160;2023-01-10T06:26:55;15.77;;;3.90;;
11921;SDS011;6021;51.182;3.160;2023-01-10T06:29:24;13.93;;;3.33;;
11921;SDS011;6021;51.182;3.160;2023-01-10T06:31:52;16.33;;;3.70;;
11921;SDS011;6021;51.182;3.160;2023-01-10T06:34:21;14.50;;;3.50;;
11921;SDS011;6021;51.182;3.160;2023-01-10T06:36:49;13.63;;;3.73;;
11921;SDS011;6021;51.182;3.160;2023-01-10T06:39:17;18.37;;;4.03;;
11921;SDS011;6021;51.182;3.160;2023-01-10T06:41:46;13.23;;;3.63;;
11921;SDS011;6021;51.182;3.160;2023-01-10T06:44:14;16.40;;;3.50;;
11921;SDS011;6021;51.182;3.160;2023-01-10T06:46:43;15.70;;;3.83;;
11921;SDS011;6021;51.182;3.160;2023-01-10T06:49:11;12.77;;;3.43;;
11921;SDS011;6021;51.182;3.160;2023-01-10T06:51:39;19.47;;;3.83;;
11921;SDS011;6021;51.182;3.160;2023-01-10T06:54:08;19.00;;;3.90;;
11921;SDS011;6021;51.182;3.160;2023-01-10T06:56:36;15.73;;;3.73;;
11921;SDS011;6021;51.182;3.160;2023-01-10T06:59:05;18.93;;;3.73;;
11921;SDS011;6021;51.182;3.160;2023-01-10T07:01:34;14.07;;;3.43;;
11921;SDS011;6021;51.182;3.160;2023-01-10T07:04:03;11.70;;;3.10;;
11921;SDS011;6021;51.182;3.160;2023-01-10T07:06:35;13.83;;;3.60;;
11921;SDS011;6021;51.182;3.160;2023-01-10T07:09:05;13.30;;;3.83;;
11921;SDS011;6021;51.182;3.160;2023-01-10T07:11:33;17.73;;;3.40;;
11921;SDS011;6021;51.182;3.160;2023-01-10T07:14:02;12.77;;;3.70;;
11921;SDS011;6021;51.182;3.160;2023-01-10T07:16:30;14.17;;;3.20;;
11921;SDS011;6021;51.182;3.160;2023-01-10T07:18:59;10.50;;;3.03;;
11921;SDS011;6021;51.182;3.160;2023-01-10T07:21:27;13.97;;;3.40;;
11921;SDS011;6021;51.182;3.160;2023-01-10T07:23:56;11.80;;;3.83;;
11921;SDS011;6021;51.182;3.160;2023-01-10T07:26:24;15.00;;;3.73;;
11921;SDS011;6021;51.182;3.160;2023-01-10T07:28:53;12.40;;;3.60;;
11921;SDS011;6021;51.182;3.160;2023-01-10T07:31:21;14.30;;;3.43;;
11921;SDS011;6021;51.182;3.160;2023-01-10T07:33:50;19.10;;;4.37;;
11921;SDS011;6021;51.182;3.160;2023-01-10T07:36:19;13.10;;;3.53;;
11921;SDS011;6021;51.182;3.160;2023-01-10T07:38:47;13.30;;;3.97;;
11921;SDS011;6021;51.182;3.160;2023-01-10T07:41:16;18.77;;;4.40;;
11921;SDS011;6021;51.182;3.160;2023-01-10T07:43:44;17.23;;;3.90;;
11921;SDS011;6021;51.182;3.160;2023-01-10T07:46:14;18.10;;;4.30;;
11921;SDS011;6021;51.182;3.160;2023-01-10T07:48:42;16.63;;;4.20;;
11921;SDS011;6021;51.182;3.160;2023-01-10T07:51:12;16.90;;;4.10;;
11921;SDS011;6021;51.182;3.160;2023-01-10T07:53:40;20.47;;;4.60;;
11921;SDS011;6021;51.182;3.160;2023-01-10T07:56:09;17.47;;;4.90;;
11921;SDS011;6021;51.182;3.160;2023-01-10T07:58:38;15.17;;;3.90;;
11921;SDS011;6021;51.182;3.160;2023-01-10T08:01:10;14.23;;;3.93;;
11921;SDS011;6021;51.182;3.160;2023-01-10T08:03:38;18.03;;;4.20;;
11921;SDS011;6021;51.182;3.160;2023-01-10T08:06:07;16.63;;;4.17;;
11921;SDS011;6021;51.182;3.160;2023-01-10T08:08:36;16.70;;;4.23;;
11921;SDS011;6021;51.182;3.160;2023-01-10T08:11:05;21.37;;;4.43;;
11921;SDS011;6021;51.182;3.160;2023-01-10T08:13:34;16.90;;;4.23;;
11921;SDS011;6021;51.182;3.160;2023-01-10T08:16:05;16.40;;;4.40;;
11921;SDS011;6021;51.182;3.160;2023-01-10T08:18:36;18.77;;;4.20;;
11921;SDS011;6021;51.182;3.160;2023-01-10T08:21:07;16.50;;;4.90;;
11921;SDS011;6021;51.182;3.160;2023-01-10T08:23:36;16.37;;;4.03;;
11921;SDS011;6021;51.182;3.160;2023-01-10T08:26:04;18.50;;;4.30;;
11921;SDS011;6021;51.182;3.160;2023-01-10T08:28:33;19.97;;;4.87;;
11921;SDS011;6021;51.182;3.160;2023-01-10T08:31:06;14.67;;;4.43;;
11921;SDS011;6021;51.182;3.160;2023-01-10T08:33:32;22.50;;;4.50;;
11921;SDS011;6021;51.182;3.160;2023-01-10T08:36:00;21.00;;;4.90;;
11921;SDS011;6021;51.182;3.160;2023-01-10T08:38:31;17.10;;;5.00;;
11921;SDS011;6021;51.182;3.160;2023-01-10T08:41:00;18.73;;;4.73;;
11921;SDS011;6021;51.182;3.160;2023-01-10T08:43:29;21.10;;;4.87;;
11921;SDS011;6021;51.182;3.160;2023-01-10T08:45:57;18.07;;;5.43;;
11921;SDS011;6021;51.182;3.160;2023-01-10T08:48:26;20.17;;;5.10;;
11921;SDS011;6021;51.182;3.160;2023-01-10T08:50:54;16.57;;;4.70;;
11921;SDS011;6021;51.182;3.160;2023-01-10T08:53:23;18.37;;;4.57;;
11921;SDS011;6021;51.182;3.160;2023-01-10T08:55:53;19.90;;;4.60;;
11921;SDS011;6021;51.182;3.160;2023-01-10T08:58:21;20.10;;;4.97;;
11921;SDS011;6021;51.182;3.160;2023-01-10T09:00:50;17.97;;;4.67;;
11921;SDS011;6021;51.182;3.160;2023-01-10T09:03:18;19.90;;;5.40;;
11921;SDS011;6021;51.182;3.160;2023-01-10T09:05:47;20.70;;;5.57;;
11921;SDS011;6021;51.182;3.160;2023-01-10T09:08:15;15.07;;;4.60;;
11921;SDS011;6021;51.182;3.160;2023-01-10T09:10:44;16.03;;;4.60;;
11921;SDS011;6021;51.182;3.160;2023-01-10T09:13:13;18.57;;;4.97;;
11921;SDS011;6021;51.182;3.160;2023-01-10T09:15:42;17.60;;;4.47;;
11921;SDS011;6021;51.182;3.160;2023-01-10T09:18:12;16.43;;;4.23;;
11921;SDS011;6021;51.182;3.160;2023-01-10T09:20:40;15.57;;;4.20;;
11921;SDS011;6021;51.182;3.160;2023-01-10T09:23:10;16.77;;;4.23;;
11921;SDS011;6021;51.182;3.160;2023-01-10T09:25:42;15.23;;;4.10;;
11921;SDS011;6021;51.182;3.160;2023-01-10T09:28:11;15.63;;;4.30;;
11921;SDS011;6021;51.182;3.160;2023-01-10T09:30:40;13.00;;;3.90;;
11921;SDS011;6021;51.182;3.160;2023-01-10T09:33:09;20.67;;;5.00;;
11921;SDS011;6021;51.182;3.160;2023-01-10T09:35:39;16.60;;;4.17;;
11921;SDS011;6021;51.182;3.160;2023-01-10T09:38:12;17.47;;;4.73;;
11921;SDS011;6021;51.182;3.160;2023-01-10T09:40:46;15.50;;;4.87;;
11921;SDS011;6021;51.182;3.160;2023-01-10T09:46:28;19.83;;;4.97;;
11921;SDS011;6021;51.182;3.160;2023-01-10T09:51:40;15.53;;;4.50;;
11921;SDS011;6021;51.182;3.160;2023-01-10T09:54:12;15.73;;;4.10;;
11921;SDS011;6021;51.182;3.160;2023-01-10T09:56:43;13.40;;;4.03;;
11921;SDS011;6021;51.182;3.160;2023-01-10T09:59:16;15.07;;;4.47;;
11921;SDS011;6021;51.182;3.160;2023-01-10T10:02:35;18.13;;;4.53;;
11921;SDS011;6021;51.182;3.160;2023-01-10T10:04:37;16.47;;;4.77;;
11921;SDS011;6021;51.182;3.160;2023-01-10T10:07:04;19.50;;;5.07;;
11921;SDS011;6021;51.182;3.160;2023-01-10T10:09:35;16.17;;;4.60;;
11921;SDS011;6021;51.182;3.160;2023-01-10T10:12:18;16.40;;;5.00;;
11921;SDS011;6021;51.182;3.160;2023-01-10T10:20:17;18.70;;;4.93;;
11921;SDS011;6021;51.182;3.160;2023-01-10T10:34:11;12.80;;;4.10;;
11921;SDS011;6021;51.182;3.160;2023-01-10T10:36:52;14.33;;;4.40;;
11921;SDS011;6021;51.182;3.160;2023-01-10T10:39:36;14.17;;;4.20;;
11921;SDS011;6021;51.182;3.160;2023-01-10T10:42:10;18.80;;;4.80;;
11921;SDS011;6021;51.182;3.160;2023-01-10T10:44:38;12.27;;;3.60;;
11921;SDS011;6021;51.182;3.160;2023-01-10T10:47:16;16.37;;;5.07;;
11921;SDS011;6021;51.182;3.160;2023-01-10T10:49:49;14.70;;;4.27;;
11921;SDS011;6021;51.182;3.160;2023-01-10T10:52:35;16.33;;;4.60;;
11921;SDS011;6021;51.182;3.160;2023-01-10T10:55:04;17.43;;;4.77;;
11921;SDS011;6021;51.182;3.160;2023-01-10T10:57:36;16.70;;;4.23;;
11921;SDS011;6021;51.182;3.160;2023-01-10T11:00:07;18.03;;;4.30;;
11921;SDS011;6021;51.182;3.160;2023-01-10T11:02:44;13.03;;;4.13;;
11921;SDS011;6021;51.182;3.160;2023-01-10T11:05:18;17.17;;;4.30;;
11921;SDS011;6021;51.182;3.160;2023-01-10T11:07:50;15.20;;;4.43;;
11921;SDS011;6021;51.182;3.160;2023-01-10T11:10:22;19.97;;;4.93;;
11921;SDS011;6021;51.182;3.160;2023-01-10T11:13:16;15.33;;;4.73;;
11921;SDS011;6021;51.182;3.160;2023-01-10T11:16:03;14.57;;;4.37;;
11921;SDS011;6021;51.182;3.160;2023-01-10T11:18:32;17.50;;;4.30;;
11921;SDS011;6021;51.182;3.160;2023-01-10T11:21:07;14.83;;;4.37;;
11921;SDS011;6021;51.182;3.160;2023-01-10T11:27:00;15.67;;;4.57;;
11921;SDS011;6021;51.182;3.160;2023-01-10T11:29:16;16.50;;;4.87;;
11921;SDS011;6021;51.182;3.160;2023-01-10T11:31:46;11.83;;;3.97;;
11921;SDS011;6021;51.182;3.160;2023-01-10T11:34:27;16.47;;;4.67;;
11921;SDS011;6021;51.182;3.160;2023-01-10T11:37:00;17.83;;;4.77;;
11921;SDS011;6021;51.182;3.160;2023-01-10T11:39:31;15.43;;;4.00;;
11921;SDS011;6021;51.182;3.160;2023-01-10T11:47:56;12.90;;;4.30;;
11921;SDS011;6021;51.182;3.160;2023-01-10T11:50:31;15.77;;;4.23;;
11921;SDS011;6021;51.182;3.160;2023-01-10T11:53:02;14.30;;;3.83;;
11921;SDS011;6021;51.182;3.160;2023-01-10T11:55:33;16.83;;;4.33;;
11921;SDS011;6021;51.182;3.160;2023-01-10T11:58:12;14.60;;;4.37;;
11921;SDS011;6021;51.182;3.160;2023-01-10T12:00:39;15.93;;;4.13;;
11921;SDS011;6021;51.182;3.160;2023-01-10T12:05:53;14.27;;;4.13;;
11921;SDS011;6021;51.182;3.160;2023-01-10T12:08:35;14.47;;;4.13;;
11921;SDS011;6021;51.182;3.160;2023-01-10T12:13:44;11.37;;;3.70;;
11921;SDS011;6021;51.182;3.160;2023-01-10T12:16:20;15.73;;;4.30;;
11921;SDS011;6021;51.182;3.160;2023-01-10T12:18:48;14.17;;;3.90;;
11921;SDS011;6021;51.182;3.160;2023-01-10T12:21:20;14.63;;;4.20;;
11921;SDS011;6021;51.182;3.160;2023-01-10T12:23:52;14.57;;;4.40;;
11921;SDS011;6021;51.182;3.160;2023-01-10T12:26:24;13.97;;;4.20;;
11921;SDS011;6021;51.182;3.160;2023-01-10T12:28:56;11.27;;;3.80;;
11921;SDS011;6021;51.182;3.160;2023-01-10T12:31:27;14.43;;;3.60;;
11921;SDS011;6021;51.182;3.160;2023-01-10T12:36:48;13.13;;;4.23;;
11921;SDS011;6021;51.182;3.160;2023-01-10T12:39:27;13.07;;;4.70;;
11921;SDS011;6021;51.182;3.160;2023-01-10T12:42:09;11.30;;;4.17;;
11921;SDS011;6021;51.182;3.160;2023-01-10T12:45:11;13.07;;;4.17;;
11921;SDS011;6021;51.182;3.160;2023-01-10T12:50:27;13.90;;;4.37;;
11921;SDS011;6021;51.182;3.160;2023-01-10T12:55:45;12.40;;;4.57;;
11921;SDS011;6021;51.182;3.160;2023-01-10T12:58:18;11.17;;;4.17;;
11921;SDS011;6021;51.182;3.160;2023-01-10T13:00:51;11.90;;;4.27;;
11921;SDS011;6021;51.182;3.160;2023-01-10T13:03:23;13.17;;;4.30;;
11921;SDS011;6021;51.182;3.160;2023-01-10T13:05:53;10.77;;;4.10;;
11921;SDS011;6021;51.182;3.160;2023-01-10T13:08:25;11.90;;;4.13;;
11921;SDS011;6021;51.182;3.160;2023-01-10T13:10:56;10.93;;;4.47;;
11921;SDS011;6021;51.182;3.160;2023-01-10T13:19:03;9.80;;;4.10;;
11921;SDS011;6021;51.182;3.160;2023-01-10T13:21:34;10.60;;;4.00;;
11921;SDS011;6021;51.182;3.160;2023-01-10T13:24:04;9.70;;;3.60;;
11921;SDS011;6021;51.182;3.160;2023-01-10T13:26:50;8.13;;;3.90;;
11921;SDS011;6021;51.182;3.160;2023-01-10T13:29:24;7.40;;;3.90;;
11921;SDS011;6021;51.182;3.160;2023-01-10T13:31:55;8.63;;;4.40;;
11921;SDS011;6021;51.182;3.160;2023-01-10T13:34:26;9.33;;;4.13;;
11921;SDS011;6021;51.182;3.160;2023-01-10T13:37:09;9.73;;;5.00;;
11921;SDS011;6021;51.182;3.160;2023-01-10T13:39:42;8.33;;;5.00;;
11921;SDS011;6021;51.182;3.160;2023-01-10T13:42:26;9.13;;;4.63;;
11921;SDS011;6021;51.182;3.160;2023-01-10T13:45:27;7.70;;;4.23;;
11921;SDS011;6021;51.182;3.160;2023-01-10T13:48:00;7.87;;;3.77;;
11921;SDS011;6021;51.182;3.160;2023-01-10T14:01:29;11.83;;;4.90;;
11921;SDS011;6021;51.182;3.160;2023-01-10T14:04:17;7.40;;;4.97;;
11921;SDS011;6021;51.182;3.160;2023-01-10T14:09:46;9.63;;;5.70;;
11921;SDS011;6021;51.182;3.160;2023-01-10T14:12:17;7.20;;;4.97;;
11921;SDS011;6021;51.182;3.160;2023-01-10T14:14:54;6.23;;;4.93;;
11921;SDS011;6021;51.182;3.160;2023-01-10T14:17:28;6.70;;;5.20;;
11921;SDS011;6021;51.182;3.160;2023-01-10T14:20:05;7.10;;;6.10;;
11921;SDS011;6021;51.182;3.160;2023-01-10T14:22:38;8.57;;;6.60;;
11921;SDS011;6021;51.182;3.160;2023-01-10T14:25:20;6.93;;;6.17;;
11921;SDS011;6021;51.182;3.160;2023-01-10T14:27:46;8.07;;;6.40;;
11921;SDS011;6021;51.182;3.160;2023-01-10T14:33:00;9.47;;;7.23;;
11921;SDS011;6021;51.182;3.160;2023-01-10T14:35:32;8.87;;;7.13;;
11921;SDS011;6021;51.182;3.160;2023-01-10T14:38:02;8.43;;;7.63;;
11921;SDS011;6021;51.182;3.160;2023-01-10T14:40:35;9.63;;;8.73;;
11921;SDS011;6021;51.182;3.160;2023-01-10T14:43:15;10.67;;;9.57;;
11921;SDS011;6021;51.182;3.160;2023-01-10T14:51:15;10.87;;;9.77;;
11921;SDS011;6021;51.182;3.160;2023-01-10T14:54:12;11.37;;;10.20;;
11921;SDS011;6021;51.182;3.160;2023-01-10T14:56:42;11.17;;;10.13;;
11921;SDS011;6021;51.182;3.160;2023-01-10T14:59:22;11.47;;;10.37;;
11921;SDS011;6021;51.182;3.160;2023-01-10T15:02:00;11.80;;;10.60;;
11921;SDS011;6021;51.182;3.160;2023-01-10T15:04:56;12.13;;;10.83;;
11921;SDS011;6021;51.182;3.160;2023-01-10T15:07:26;11.83;;;10.73;;
11921;SDS011;6021;51.182;3.160;2023-01-10T15:09:57;12.50;;;11.20;;
11921;SDS011;6021;51.182;3.160;2023-01-10T15:12:31;12.30;;;11.20;;
11921;SDS011;6021;51.182;3.160;2023-01-10T15:15:06;13.30;;;12.00;;
11921;SDS011;6021;51.182;3.160;2023-01-10T15:17:36;13.00;;;11.67;;
11921;SDS011;6021;51.182;3.160;2023-01-10T15:20:06;12.73;;;11.27;;
11921;SDS011;6021;51.182;3.160;2023-01-10T15:22:39;11.73;;;10.63;;
11921;SDS011;6021;51.182;3.160;2023-01-10T15:27:52;12.97;;;11.70;;
11921;SDS011;6021;51.182;3.160;2023-01-10T15:30:26;14.47;;;12.97;;
11921;SDS011;6021;51.182;3.160;2023-01-10T15:33:03;14.10;;;12.77;;
11921;SDS011;6021;51.182;3.160;2023-01-10T15:35:35;15.97;;;13.07;;
11921;SDS011;6021;51.182;3.160;2023-01-10T15:38:07;14.83;;;13.33;;
11921;SDS011;6021;51.182;3.160;2023-01-10T15:40:40;14.27;;;12.93;;
11921;SDS011;6021;51.182;3.160;2023-01-10T15:45:58;16.17;;;14.57;;
11921;SDS011;6021;51.182;3.160;2023-01-10T15:48:40;14.87;;;13.37;;
11921;SDS011;6021;51.182;3.160;2023-01-10T15:51:18;16.57;;;14.57;;
11921;SDS011;6021;51.182;3.160;2023-01-10T15:56:51;18.23;;;15.97;;
11921;SDS011;6021;51.182;3.160;2023-01-10T16:01:55;16.00;;;13.43;;
11921;SDS011;6021;51.182;3.160;2023-01-10T16:04:25;15.60;;;13.67;;
11921;SDS011;6021;51.182;3.160;2023-01-10T16:07:03;15.20;;;13.10;;
11921;SDS011;6021;51.182;3.160;2023-01-10T16:09:26;14.23;;;12.73;;
11921;SDS011;6021;51.182;3.160;2023-01-10T16:11:55;14.83;;;13.33;;
11921;SDS011;6021;51.182;3.160;2023-01-10T16:17:26;16.87;;;13.97;;
11921;SDS011;6021;51.182;3.160;2023-01-10T16:19:55;15.70;;;13.80;;
11921;SDS011;6021;51.182;3.160;2023-01-10T16:22:23;15.93;;;12.43;;
11921;SDS011;6021;51.182;3.160;2023-01-10T16:24:51;15.10;;;11.60;;
11921;SDS011;6021;51.182;3.160;2023-01-10T16:27:20;14.57;;;11.00;;
11921;SDS011;6021;51.182;3.160;2023-01-10T16:29:48;11.20;;;9.97;;
11921;SDS011;6021;51.182;3.160;2023-01-10T16:32:19;12.23;;;10.53;;
11921;SDS011;6021;51.182;3.160;2023-01-10T16:34:48;13.33;;;10.70;;
11921;SDS011;6021;51.182;3.160;2023-01-10T16:37:17;15.43;;;10.07;;
11921;SDS011;6021;51.182;3.160;2023-01-10T16:39:45;12.83;;;10.13;;
11921;SDS011;6021;51.182;3.160;2023-01-10T16:42:16;12.30;;;9.20;;
11921;SDS011;6021;51.182;3.160;2023-01-10T16:45:04;10.33;;;9.00;;
11921;SDS011;6021;51.182;3.160;2023-01-10T16:47:33;11.73;;;9.67;;
11921;SDS011;6021;51.182;3.160;2023-01-10T16:50:01;11.80;;;9.00;;
11921;SDS011;6021;51.182;3.160;2023-01-10T16:52:30;13.17;;;9.17;;
11921;SDS011;6021;51.182;3.160;2023-01-10T16:55:00;10.07;;;8.90;;
11921;SDS011;6021;51.182;3.160;2023-01-10T16:57:31;9.20;;;6.90;;
11921;SDS011;6021;51.182;3.160;2023-01-10T17:00:03;10.57;;;8.30;;
11921;SDS011;6021;51.182;3.160;2023-01-10T17:02:31;9.03;;;8.07;;
11921;SDS011;6021;51.182;3.160;2023-01-10T17:05:00;10.73;;;8.43;;
11921;SDS011;6021;51.182;3.160;2023-01-10T17:07:30;10.47;;;8.63;;
11921;SDS011;6021;51.182;3.160;2023-01-10T17:09:59;11.17;;;8.77;;
11921;SDS011;6021;51.182;3.160;2023-01-10T17:12:31;10.10;;;8.33;;
11921;SDS011;6021;51.182;3.160;2023-01-10T17:15:05;9.97;;;8.53;;